1994 REWA (1993360S04171)


On this page: IBTrACS data - Map and Plots - Positions - Intensities - Original source data

Summary

Start Dec 26
End Jan 23
Basin SP
LMI 125 kt
Sources jtwc_sh
bom
wellington
neumann
In WMO? Yes
Previous storm 1993 MISSING (NI)
Previous in basin 1993 ADEL (SP)
Concurrent storms 1993 NELL (WP)
1994 REWA (SP)
1994 OSCAR (SI)
1994 TD0104 (WP)
1994 HSK0794 (SP)
1994 DAISY (SI)
1994 FARAH (SI)
1994 EDMEA (SI)
1994 SARAH (SP)
1994 SARAH (SP)
1994 QUENTON (SI)
Next in basin 1994 HSK0794 (SP)
Next storm 1994 OSCAR (SI)

top of page IBTrACS Data: File Access

Image of storm

top of page Plots:

Map of storm track will not appear if FTP is down
Time series of cyclone Maximum Sustained Wind will not appear if FTP is down
Time series of cyclone Minimum Central Pressure will not appear if FTP is down

top of page Track Data:Position

jtwc_sh bom wellington neumann
Date Lat Lon Lat Lon Lat Lon Lat Lon
1993-12-26 06:00:00 -3.9 170.9 -3.9 170.9
1993-12-26 12:00:00 -4.4 171.5 -4.4 171.5
1993-12-26 18:00:00 -5.0 172.0 -5.0 172.0
1993-12-27 00:00:00 -5.9 172.2 -5.9 172.2
1993-12-27 06:00:00 -6.9 172.0 -6.9 172.0
1993-12-27 12:00:00 -7.8 171.5 -7.8 171.5
1993-12-27 18:00:00 -8.5 170.6 -8.5 170.6
1993-12-28 00:00:00 -9.0 169.3 -9.0 169.3
1993-12-28 06:00:00 -9.4 167.8 -9.5 165.5 -9.0 168.0 -9.4 167.8
1993-12-28 12:00:00 -9.8 166.1 -9.8 165.0 -9.5 166.5 -9.8 166.1
1993-12-28 18:00:00 -10.2 164.4 -10.0 163.5 -10.3 164.5 -10.2 164.4
1993-12-29 00:00:00 -10.6 162.7 -10.0 162.5 -10.5 163.0 -10.6 162.7
1993-12-29 06:00:00 -10.9 161.2 -9.6 161.9 -9.8 161.5 -10.9 161.2
1993-12-29 12:00:00 -11.1 159.8 -10.2 160.5 -10.0 160.5 -11.1 159.8
1993-12-29 18:00:00 -11.3 158.6 -10.8 159.0 -10.5 159.0 -11.3 158.6
1993-12-30 00:00:00 -11.4 157.5 -11.2 157.5 -11.2 157.5 -11.4 157.5
1993-12-30 06:00:00 -11.5 156.5 -11.5 155.8 -11.5 155.8 -11.5 156.5
1993-12-30 12:00:00 -11.7 155.5 -11.5 155.1 -11.4 155.1 -11.7 155.5
1993-12-30 18:00:00 -11.9 154.6 -11.6 154.5 -11.6 154.5 -11.9 154.6
1993-12-31 00:00:00 -12.1 153.9 -12.2 153.6 -12.0 153.8 -12.1 153.9
1993-12-31 06:00:00 -12.4 153.4 -12.3 153.1 -12.3 153.1 -12.4 153.4
1993-12-31 12:00:00 -12.8 153.1 -12.6 153.7 -12.5 152.3 -12.8 153.1
1993-12-31 18:00:00 -13.2 153.0 -13.0 153.8 -12.9 151.9 -13.2 153.0
1994-01-01 00:00:00 -13.6 153.0 -13.5 153.0 -13.5 152.5 -13.6 153.0
1994-01-01 06:00:00 -14.0 153.1 -14.0 153.0 -14.0 153.0 -14.0 153.1
jtwc_sh bom wellington neumann
1994-01-01 12:00:00 -14.5 153.2 -14.6 152.9 -14.5 152.9 -14.5 153.2
1994-01-01 18:00:00 -15.0 153.3 -15.0 153.0 -15.0 153.0 -15.0 153.3
1994-01-02 00:00:00 -15.5 153.4 -15.5 153.5 -15.5 153.5 -15.5 153.4
1994-01-02 06:00:00 -16.2 153.6 -16.0 153.6 -16.0 153.5 -16.2 153.6
1994-01-02 12:00:00 -17.0 153.8 -16.9 153.9 -16.9 153.9 -17.0 153.8
1994-01-02 18:00:00 -17.9 154.0 -17.8 154.1 -17.8 154.1 -17.9 154.0
1994-01-03 00:00:00 -18.8 154.2 -18.7 154.2 -18.7 154.2 -18.8 154.2
1994-01-03 06:00:00 -19.6 154.7 -19.5 154.6 -19.4 154.5 -19.6 154.7
1994-01-03 12:00:00 -20.4 155.4 -20.0 155.0 -20.1 155.0 -20.4 155.4
1994-01-03 18:00:00 -21.0 156.3 -20.7 156.2 -20.7 156.2 -21.0 156.3
1994-01-04 00:00:00 -21.5 157.4 -21.3 157.5 -21.3 157.5 -21.5 157.4
1994-01-04 06:00:00 -21.8 158.9 -21.7 158.9 -21.6 158.8 -21.8 158.9
1994-01-04 12:00:00 -22.0 160.6 -21.8 160.5 -21.8 160.5 -22.0 160.6
1994-01-04 18:00:00 -22.1 162.2 -21.8 162.0 -21.9 162.0 -22.1 162.2
1994-01-05 00:00:00 -22.0 163.7 -22.0 163.0 -22.0 162.8 -22.0 163.7
1994-01-05 06:00:00 -22.1 165.0 -22.0 164.2 -22.0 164.2 -22.1 165.0
1994-01-05 12:00:00 -22.1 166.0 -22.0 165.1 -22.0 165.2 -22.1 166.0
1994-01-05 18:00:00 -22.0 166.8 -21.7 166.4 -22.0 166.5 -22.0 166.8
1994-01-06 00:00:00 -22.0 167.4 -21.5 166.6 -21.8 167.0 -22.0 167.4
1994-01-06 06:00:00 -21.9 167.9 -21.4 167.0 -21.6 167.5 -21.9 167.9
1994-01-06 12:00:00 -21.6 168.5 -21.3 167.4 -21.5 168.0 -21.6 168.5
1994-01-06 18:00:00 -21.1 168.7 -21.1 167.7 -21.0 168.0 -21.1 168.7
1994-01-07 00:00:00 -20.6 168.8 -20.7 168.0 -20.5 168.0 -20.6 168.8
1994-01-07 06:00:00 -20.1 168.6 -20.4 168.2 -20.1 168.1 -20.1 168.6
jtwc_sh bom wellington neumann
1994-01-07 12:00:00 -19.7 168.3 -20.0 168.3 -19.9 168.2 -19.7 168.3
1994-01-07 18:00:00 -19.3 168.1 -19.6 168.2 -19.7 168.2 -19.3 168.1
1994-01-08 00:00:00 -19.0 167.7 -19.4 168.0 -19.5 168.0 -19.0 167.7
1994-01-08 06:00:00 -18.8 167.2 -19.0 167.4 -19.2 167.4 -18.8 167.2
1994-01-08 12:00:00 -18.5 166.6 -18.6 166.6 -18.8 166.6 -18.5 166.6
1994-01-08 18:00:00 -18.3 165.8 -18.3 166.0 -18.4 165.6 -18.3 165.8
1994-01-09 00:00:00 -18.1 164.9 -18.0 165.0 -18.0 164.6 -18.1 164.9
1994-01-09 06:00:00 -17.6 164.0 -17.6 164.3 -17.5 163.7 -17.6 164.0
1994-01-09 12:00:00 -16.9 163.0 -17.0 163.4 -16.9 162.8 -16.9 163.0
1994-01-09 18:00:00 -16.2 162.0 -16.6 162.4 -16.4 161.9 -16.2 162.0
1994-01-10 00:00:00 -15.7 161.0 -16.0 161.0 -16.0 161.0 -15.7 161.0
1994-01-10 06:00:00 -15.5 160.0 -15.9 161.6 -15.7 160.2 -15.5 160.0
1994-01-10 12:00:00 -15.5 158.9 -15.5 160.1 -15.6 159.4 -15.5 158.9
1994-01-10 18:00:00 -15.4 157.9 -15.0 159.0 -15.4 158.5 -15.4 157.9
1994-01-11 00:00:00 -15.3 156.9 -15.0 157.5 -15.3 157.5 -15.3 156.9
1994-01-11 06:00:00 -15.3 156.0 -15.0 156.1 -15.2 156.2 -15.3 156.0
1994-01-11 12:00:00 -15.1 155.1 -14.4 154.6 -15.0 155.0 -15.1 155.1
1994-01-11 18:00:00 -14.5 154.4 -13.5 153.8 -14.6 153.8 -14.5 154.4
1994-01-12 00:00:00 -13.8 154.0 -13.0 153.5 -14.0 153.0 -13.8 154.0
1994-01-12 06:00:00 -13.1 153.7 -12.4 153.4 -13.2 152.9 -13.1 153.7
1994-01-12 12:00:00 -12.5 153.5 -12.1 153.4 -12.5 153.0 -12.5 153.5
1994-01-12 18:00:00 -12.0 153.4 -11.8 153.4 -12.0 153.0 -12.0 153.4
1994-01-13 00:00:00 -11.7 153.4 -11.5 153.4 -11.7 153.1 -11.7 153.4
1994-01-13 06:00:00 -11.5 153.6 -11.4 153.2 -11.4 153.2 -11.5 153.6
jtwc_sh bom wellington neumann
1994-01-13 12:00:00 -11.4 153.9 -11.1 153.6 -11.2 153.5 -11.4 153.9
1994-01-13 18:00:00 -11.5 154.2 -11.9 154.3 -11.4 153.8 -11.5 154.2
1994-01-14 00:00:00 -11.7 154.4 -12.0 154.4 -11.6 154.2 -11.7 154.4
1994-01-14 06:00:00 -11.9 154.6 -12.1 154.5 -12.0 154.4 -11.9 154.6
1994-01-14 12:00:00 -12.2 154.8 -12.2 154.7 -12.1 154.6 -12.2 154.8
1994-01-14 18:00:00 -12.4 155.0 -12.4 154.8 -12.2 154.8 -12.4 155.0
1994-01-15 00:00:00 -12.7 155.2 -12.6 155.1 -12.6 155.1 -12.7 155.2
1994-01-15 06:00:00 -13.2 155.6 -13.0 155.6 -13.0 155.5 -13.2 155.6
1994-01-15 12:00:00 -13.9 156.0 -13.9 155.9 -13.9 156.0 -13.9 156.0
1994-01-15 18:00:00 -14.7 156.4 -14.8 156.3 -14.7 156.2 -14.7 156.4
1994-01-16 00:00:00 -15.5 156.8 -15.7 156.8 -15.5 156.7 -15.5 156.8
1994-01-16 06:00:00 -16.4 157.3 -16.4 157.3 -16.4 157.1 -16.4 157.3
1994-01-16 12:00:00 -17.3 157.8 -17.2 157.6 -17.2 157.6 -17.3 157.8
1994-01-16 18:00:00 -18.3 157.9 -17.9 157.9 -18.2 158.0 -18.3 157.9
1994-01-17 00:00:00 -19.2 157.4 -18.5 157.6 -19.0 157.8 -19.2 157.4
1994-01-17 06:00:00 -20.2 156.8 -19.0 157.0 -19.1 157.0 -20.2 156.8
1994-01-17 12:00:00 -20.8 155.8 -19.9 155.6 -19.8 155.8 -20.8 155.8
1994-01-17 18:00:00 -21.1 154.7 -20.4 154.4 -20.5 154.5 -21.1 154.7
1994-01-18 00:00:00 -21.3 153.6 -20.7 153.3 -20.7 153.2 -21.3 153.6
1994-01-18 06:00:00 -21.3 152.7 -20.9 152.5 -20.7 152.5 -21.3 152.7
1994-01-18 12:00:00 -21.2 152.1 -20.9 152.0 -20.8 152.1 -21.2 152.1
1994-01-18 18:00:00 -21.1 151.6 -20.9 151.8 -20.8 151.8 -21.1 151.6
1994-01-19 00:00:00 -21.4 151.6 -21.1 151.6 -21.0 151.5 -21.4 151.6
1994-01-19 06:00:00 -21.9 151.7 -22.0 152.0 -22.1 151.9 -21.9 151.7
jtwc_sh bom wellington neumann
1994-01-19 12:00:00 -22.4 151.9 -22.6 152.1 -22.6 151.9 -22.4 151.9
1994-01-19 18:00:00 -22.9 152.2 -22.9 152.1 -22.9 152.0 -22.9 152.2
1994-01-20 00:00:00 -23.5 152.7 -23.6 152.7 -23.6 152.8 -23.5 152.7
1994-01-20 06:00:00 -24.2 153.4 -24.2 153.5 -24.2 153.5 -24.2 153.4
1994-01-20 12:00:00 -24.9 154.3 -24.6 154.4 -24.8 154.3 -24.9 154.3
1994-01-20 18:00:00 -25.7 155.2 -25.2 155.1 -25.3 155.1 -25.7 155.2
1994-01-21 00:00:00 -26.6 156.2 -26.3 155.7 -26.5 156.3 -26.6 156.2
1994-01-21 06:00:00 -27.5 157.3 -27.0 157.0 -27.5 157.4 -27.5 157.3
1994-01-21 12:00:00 -28.5 158.8 -28.3 158.4 -28.5 158.8
1994-01-21 18:00:00 -29.6 161.0 -29.5 159.5 -29.6 161.0
1994-01-22 00:00:00 -33.3 161.4
1994-01-22 06:00:00 -37.5 162.5
1994-01-22 12:00:00 -38.1 163.6
1994-01-22 18:00:00 -38.8 164.5
1994-01-23 00:00:00 -39.5 165.5
1994-01-23 06:00:00 -40.1 166.8
1994-01-23 12:00:00 -40.6 168.3
1994-01-23 18:00:00 -41.0 170.0

top of pageTrack Data:Intensity

jtwc_sh bom wellington neumann
Date Wind Pres Wind Pres Wind Pres Wind Pres
1993-12-26 06:00:00 15. 15.
1993-12-26 12:00:00 20. 20.
1993-12-26 18:00:00 20. 20.
1993-12-27 00:00:00 20. 20.
1993-12-27 06:00:00 25. 25.
1993-12-27 12:00:00 25. 25.
1993-12-27 18:00:00 30. 30.
1993-12-28 00:00:00 30. 30.
1993-12-28 06:00:00 30. 25. 997. 25. 1000. 30.
1993-12-28 12:00:00 35. 25. 995. 30. 997. 35.
1993-12-28 18:00:00 40. 35. 995. 35. 995. 40.
1993-12-29 00:00:00 40. 41. 995. 40. 990. 40.
1993-12-29 06:00:00 45. 41. 995. 40. 990. 45.
1993-12-29 12:00:00 45. 41. 990. 40. 990. 45.
1993-12-29 18:00:00 50. 45. 985. 45. 987. 50.
1993-12-30 00:00:00 55. 51. 980. 50. 985. 55.
1993-12-30 06:00:00 60. 60. 975. 60. 975. 60.
1993-12-30 12:00:00 65. 60. 975. 60. 975. 65.
1993-12-30 18:00:00 70. 60. 975. 60. 975. 70.
1993-12-31 00:00:00 75. 60. 975. 60. 975. 75.
1993-12-31 06:00:00 75. 64. 970. 65. 970. 75.
1993-12-31 12:00:00 75. 64. 965. 65. 970. 75.
1993-12-31 18:00:00 80. 64. 965. 65. 970. 80.
1994-01-01 00:00:00 80. 64. 965. 65. 970. 80.
1994-01-01 06:00:00 80. 64. 965. 65. 970. 80.
jtwc_sh bom wellington neumann
1994-01-01 12:00:00 85. 64. 955. 65. 970. 85.
1994-01-01 18:00:00 90. 64. 940. 65. 970. 90.
1994-01-02 00:00:00 100. 64. 930. 70. 965. 100.
1994-01-02 06:00:00 115. 82. 925. 80. 955. 115.
1994-01-02 12:00:00 120. 89. 920. 90. 940. 120.
1994-01-02 18:00:00 125. 95. 920. 95. 930. 125.
1994-01-03 00:00:00 125. 95. 920. 95. 930. 125.
1994-01-03 06:00:00 120. 89. 925. 95. 930. 120.
1994-01-03 12:00:00 115. 89. 930. 90. 940. 115.
1994-01-03 18:00:00 110. 89. 940. 90. 940. 110.
1994-01-04 00:00:00 105. 84. 945. 85. 945. 105.
1994-01-04 06:00:00 100. 84. 950. 85. 945. 100.
1994-01-04 12:00:00 95. 82. 950. 80. 955. 95.
1994-01-04 18:00:00 85. 76. 955. 75. 960. 85.
1994-01-05 00:00:00 75. 70. 965. 70. 965. 75.
1994-01-05 06:00:00 65. 64. 975. 65. 970. 65.
1994-01-05 12:00:00 55. 54. 980. 55. 980. 55.
1994-01-05 18:00:00 50. 49. 985. 50. 985. 50.
1994-01-06 00:00:00 45. 49. 985. 50. 985. 45.
1994-01-06 06:00:00 40. 47. 990. 45. 987. 40.
1994-01-06 12:00:00 35. 47. 990. 40. 990. 35.
1994-01-06 18:00:00 30. 995. 30. 997. 30.
1994-01-07 00:00:00 30. 995. 30. 997. 30.
1994-01-07 06:00:00 25. 995. 30. 997. 25.
jtwc_sh bom wellington neumann
1994-01-07 12:00:00 25. 995. 30. 997. 25.
1994-01-07 18:00:00 25. 995. 25. 998. 25.
1994-01-08 00:00:00 25. 995. 25. 998. 25.
1994-01-08 06:00:00 20. 995. 25. 998. 20.
1994-01-08 12:00:00 20. 1000. 25. 998. 20.
1994-01-08 18:00:00 20. 1000. 25. 1002. 20.
1994-01-09 00:00:00 20. 1000. 25. 1002. 20.
1994-01-09 06:00:00 20. 1000. 25. 1002. 20.
1994-01-09 12:00:00 20. 1000. 25. 1002. 20.
1994-01-09 18:00:00 25. 1000. 25. 1002. 25.
1994-01-10 00:00:00 25. 1000. 25. 1002. 25.
1994-01-10 06:00:00 25. 1000. 25. 1002. 25.
1994-01-10 12:00:00 25. 1001. 25. 1002. 25.
1994-01-10 18:00:00 25. 1000. 25. 1000. 25.
1994-01-11 00:00:00 25. 998. 25. 1000. 25.
1994-01-11 06:00:00 25. 995. 25. 1000. 25.
1994-01-11 12:00:00 25. 995. 30. 997. 25.
1994-01-11 18:00:00 25. 995. 30. 997. 25.
1994-01-12 00:00:00 25. 1000. 30. 997. 25.
1994-01-12 06:00:00 25. 1000. 30. 997. 25.
1994-01-12 12:00:00 25. 1002. 30. 997. 25.
1994-01-12 18:00:00 30. 1002. 30. 997. 30.
1994-01-13 00:00:00 30. 995. 35. 995. 30.
1994-01-13 06:00:00 35. 51. 985. 40. 990. 35.
jtwc_sh bom wellington neumann
1994-01-13 12:00:00 35. 51. 985. 50. 985. 35.
1994-01-13 18:00:00 40. 51. 985. 50. 985. 40.
1994-01-14 00:00:00 45. 51. 985. 50. 985. 45.
1994-01-14 06:00:00 50. 54. 975. 55. 980. 50.
1994-01-14 12:00:00 55. 60. 975. 60. 975. 55.
1994-01-14 18:00:00 60. 60. 975. 65. 970. 60.
1994-01-15 00:00:00 65. 64. 975. 70. 965. 65.
1994-01-15 06:00:00 70. 64. 960. 80. 955. 70.
1994-01-15 12:00:00 80. 91. 940. 90. 940. 80.
1994-01-15 18:00:00 90. 91. 935. 90. 940. 90.
1994-01-16 00:00:00 100. 91. 930. 90. 940. 100.
1994-01-16 06:00:00 115. 95. 925. 95. 930. 115.
1994-01-16 12:00:00 125. 111. 920. 95. 930. 125.
1994-01-16 18:00:00 120. 95. 920. 95. 930. 120.
1994-01-17 00:00:00 110. 95. 920. 95. 930. 110.
1994-01-17 06:00:00 95. 95. 930. 85. 945. 95.
1994-01-17 12:00:00 80. 82. 945. 80. 955. 80.
1994-01-17 18:00:00 70. 64. 960. 75. 960. 70.
1994-01-18 00:00:00 65. 70. 965. 70. 965. 65.
1994-01-18 06:00:00 60. 70. 965. 70. 965. 60.
1994-01-18 12:00:00 55. 70. 965. 70. 965. 55.
1994-01-18 18:00:00 50. 70. 965. 65. 970. 50.
1994-01-19 00:00:00 50. 60. 975. 60. 975. 50.
1994-01-19 06:00:00 45. 60. 975. 60. 975. 45.
jtwc_sh bom wellington neumann
1994-01-19 12:00:00 45. 60. 975. 60. 975. 45.
1994-01-19 18:00:00 40. 54. 980. 55. 980. 40.
1994-01-20 00:00:00 40. 51. 980. 55. 980. 40.
1994-01-20 06:00:00 40. 54. 980. 55. 980. 40.
1994-01-20 12:00:00 40. 51. 980. 50. 985. 40.
1994-01-20 18:00:00 35. 47. 985. 45. 987. 35.
1994-01-21 00:00:00 35. 47. 985. 40. 990. 35.
1994-01-21 06:00:00 35. 47. 990. 35. 995. 35.
1994-01-21 12:00:00 30. 30. 997. 30.
1994-01-21 18:00:00 30. 30. 997. 30.
1994-01-22 00:00:00 30. 997.
1994-01-22 06:00:00 30. 997.
1994-01-22 12:00:00 30. 997.
1994-01-22 18:00:00 30. 997.
1994-01-23 00:00:00 30. 997.
1994-01-23 06:00:00 30. 997.
1994-01-23 12:00:00 30. 997.
1994-01-23 18:00:00 30. 997.

top of page Links to source data

Source Source file Format
jtwc_sh bsh051994.txt ATCF
bom Newcyclonedatabase-08repair.csv:Line=16751:REWA CSV file (from Excel file)
wellington TC_BT_1967_2006.csv:Line=4678:REWA Text table
neumann tracks.sh:Storm=987:REWA:BSH051994:JTWC&NZeal19036 HURDAT